createdAt,value
2023-03-28T00:01:02.817Z,101642.88
2023-03-28T00:03:35.945Z,101639.84
2023-03-28T00:06:09.764Z,101631.38
2023-03-28T00:08:39.634Z,101633.59
2023-03-28T00:11:10.464Z,101633.84
2023-03-28T00:13:38.939Z,101622.66
2023-03-28T00:16:09.571Z,101610.34
2023-03-28T00:18:39.392Z,101607.56
2023-03-28T00:21:23.496Z,101606.72
2023-03-28T00:23:53.706Z,101608.69
2023-03-28T00:26:24.956Z,101600.78
2023-03-28T00:28:54.756Z,101592.34
2023-03-28T00:31:23.458Z,101585.44
2023-03-28T00:33:51.656Z,101584.59
2023-03-28T00:36:23.601Z,101580.16
2023-03-28T00:38:52.452Z,101568.13
2023-03-28T00:41:22.120Z,101573.38
2023-03-28T00:43:52.964Z,101569.91
2023-03-28T00:46:24.048Z,101563.28
2023-03-28T00:48:54.976Z,101556.63
2023-03-28T00:51:28.022Z,101554.97
2023-03-28T00:54:00.216Z,101559.41
2023-03-28T00:56:31.732Z,101541.97
2023-03-28T00:59:03.224Z,101537.38
2023-03-28T01:01:31.542Z,101527.84
2023-03-28T01:04:03.102Z,101526.34
2023-03-28T01:06:36.690Z,101522.59
2023-03-28T01:09:08.251Z,101504.91
2023-03-28T01:11:38.311Z,101497.13
2023-03-28T01:14:07.545Z,101488.00
2023-03-28T01:16:42.238Z,101471.13
2023-03-28T01:19:21.991Z,101469.31
2023-03-28T01:22:31.572Z,101467.22
2023-03-28T01:25:44.627Z,101454.91
2023-03-28T01:28:26.797Z,101447.03
2023-03-28T01:31:15.796Z,101443.53
2023-03-28T01:34:21.594Z,101432.06
2023-03-28T01:37:07.219Z,101421.41
2023-03-28T01:39:53.859Z,101413.25
2023-03-28T01:42:29.404Z,101414.06
2023-03-28T01:45:07.005Z,101415.56
2023-03-28T01:47:39.641Z,101406.13
2023-03-28T01:50:15.354Z,101402.53
2023-03-28T01:52:51.361Z,101402.81
2023-03-28T01:55:24.853Z,101399.91
2023-03-28T01:58:04.446Z,101395.63
2023-03-28T02:00:36.507Z,101401.56
2023-03-28T02:03:11.829Z,101408.34
2023-03-28T02:05:43.035Z,101404.06
2023-03-28T02:08:15.295Z,101403.19
2023-03-28T02:10:45.880Z,101397.00
2023-03-28T02:13:19.008Z,101393.66
2023-03-28T02:15:50.846Z,101392.84
2023-03-28T02:18:25.178Z,101388.56
2023-03-28T02:20:57.941Z,101379.00
2023-03-28T02:23:31.933Z,101373.59
2023-03-28T02:26:00.565Z,101371.78
2023-03-28T02:28:31.851Z,101362.25
2023-03-28T02:31:01.674Z,101349.25
2023-03-28T02:33:39.648Z,101348.97
2023-03-28T02:36:27.232Z,101346.50
2023-03-28T02:39:08.005Z,101326.72
2023-03-28T02:41:46.374Z,101311.22
2023-03-28T02:44:31.112Z,101290.19
2023-03-28T02:47:08.835Z,101287.28
2023-03-28T02:49:50.533Z,101278.41
2023-03-28T02:52:35.499Z,101284.81
2023-03-28T02:55:17.200Z,101290.88
2023-03-28T02:57:48.651Z,101293.41
2023-03-28T03:00:19.413Z,101292.97
2023-03-28T03:02:50.640Z,101280.09
2023-03-28T03:05:20.210Z,101275.16
2023-03-28T03:07:49.962Z,101271.16
2023-03-28T03:10:20.224Z,101265.75
2023-03-28T03:12:48.351Z,101264.09
2023-03-28T03:15:17.757Z,101269.50
2023-03-28T03:17:45.999Z,101262.56
2023-03-28T03:20:14.360Z,101255.22
2023-03-28T03:22:42.590Z,101245.84
2023-03-28T03:25:13.872Z,101243.72
2023-03-28T03:27:44.146Z,101231.28
2023-03-28T03:30:13.841Z,101238.88
2023-03-28T03:32:44.464Z,101237.81
2023-03-28T03:35:12.957Z,101219.78
2023-03-28T03:37:41.617Z,101219.25
2023-03-28T03:40:11.087Z,101216.34
2023-03-28T03:42:39.319Z,101204.00
2023-03-28T03:45:11.405Z,101208.44
2023-03-28T03:47:39.662Z,101215.66
2023-03-28T03:50:09.606Z,101197.78
2023-03-28T03:52:38.558Z,101175.19
2023-03-28T03:55:07.699Z,101172.56
2023-03-28T03:57:36.010Z,101168.56
2023-03-28T04:00:11.819Z,101154.72
2023-03-28T04:02:41.938Z,101157.22
2023-03-28T04:05:10.492Z,101149.34
2023-03-28T04:07:38.861Z,101137.84
2023-03-28T04:10:08.245Z,101147.91
2023-03-28T04:12:36.452Z,101139.19
2023-03-28T04:15:04.995Z,101147.09
2023-03-28T04:17:35.286Z,101140.19
2023-03-28T04:20:11.592Z,101127.16
2023-03-28T04:22:45.392Z,101124.16
2023-03-28T04:25:14.959Z,101119.72
2023-03-28T04:27:47.294Z,101121.25
2023-03-28T04:30:18.030Z,101122.06
2023-03-28T04:32:49.666Z,101119.44
2023-03-28T04:35:19.620Z,101110.72
2023-03-28T04:37:49.458Z,101113.19
2023-03-28T04:40:17.908Z,101109.66
2023-03-28T04:42:46.891Z,101094.56
2023-03-28T04:45:17.705Z,101094.25
2023-03-28T04:47:46.380Z,101082.78
2023-03-28T04:50:14.806Z,101073.09
2023-03-28T04:52:44.440Z,101077.34
2023-03-28T04:55:12.612Z,101072.09
2023-03-28T04:57:40.989Z,101068.94
2023-03-28T05:00:13.020Z,101060.22
2023-03-28T05:02:41.270Z,101055.13
2023-03-28T05:05:10.217Z,101049.06
2023-03-28T05:07:38.363Z,101050.69
2023-03-28T05:10:09.242Z,101049.06
2023-03-28T05:12:37.425Z,101038.66
2023-03-28T05:15:06.544Z,101052.66
2023-03-28T05:17:34.894Z,101034.91
2023-03-28T05:20:08.162Z,101023.75
2023-03-28T05:22:36.285Z,101029.66
2023-03-28T05:25:04.805Z,101026.50
2023-03-28T05:27:34.694Z,101030.47
2023-03-28T05:30:02.773Z,101013.06
2023-03-28T05:32:31.316Z,101020.13
2023-03-28T05:34:59.593Z,101012.59
2023-03-28T05:37:28.651Z,101006.97
2023-03-28T05:39:56.903Z,101004.19
2023-03-28T05:42:25.115Z,100988.72
2023-03-28T05:44:54.668Z,100970.84
2023-03-28T05:47:22.775Z,100982.34
2023-03-28T05:49:52.566Z,100971.97
2023-03-28T05:52:22.729Z,100951.59
2023-03-28T05:54:52.102Z,100948.97
2023-03-28T05:57:21.672Z,100941.91
2023-03-28T05:59:50.741Z,100931.41
2023-03-28T06:02:21.886Z,100928.13
2023-03-28T06:04:50.108Z,100921.69
2023-03-28T06:07:21.161Z,100923.34
2023-03-28T06:09:51.370Z,100933.28
2023-03-28T06:12:19.450Z,100925.50
2023-03-28T06:14:47.606Z,100933.78
2023-03-28T06:17:16.014Z,100927.69
2023-03-28T06:19:45.675Z,100922.94
2023-03-28T06:22:13.797Z,100915.88
2023-03-28T06:24:41.822Z,100914.91
2023-03-28T06:27:10.447Z,100910.25
2023-03-28T06:29:38.983Z,100895.31
2023-03-28T06:32:07.237Z,100906.97
2023-03-28T06:34:35.771Z,100894.81
2023-03-28T06:37:05.806Z,100866.03
2023-03-28T06:39:34.039Z,100875.19
2023-03-28T06:42:03.533Z,100872.56
2023-03-28T06:44:31.686Z,100859.75
2023-03-28T06:47:00.120Z,100859.88
2023-03-28T06:49:28.222Z,100873.88
2023-03-28T06:51:56.374Z,100876.00
2023-03-28T06:54:26.153Z,100871.72
2023-03-28T06:56:54.344Z,100857.25
2023-03-28T06:59:22.578Z,100866.47
2023-03-28T07:01:50.797Z,100867.94
2023-03-28T07:04:19.071Z,100857.25
2023-03-28T07:06:49.048Z,100851.19
2023-03-28T07:09:17.204Z,100849.38
2023-03-28T07:11:46.586Z,100848.91
2023-03-28T07:14:14.818Z,100840.53
2023-03-28T07:16:42.949Z,100836.75
2023-03-28T07:19:11.401Z,100823.44
2023-03-28T07:21:39.558Z,100817.34
2023-03-28T07:24:08.440Z,100810.81
2023-03-28T07:26:37.170Z,100803.75
2023-03-28T07:29:06.881Z,100788.66
2023-03-28T07:31:35.302Z,100782.22
2023-03-28T07:34:03.582Z,100768.25
2023-03-28T07:36:31.751Z,100765.50
2023-03-28T07:38:59.999Z,100769.94
2023-03-28T07:41:28.070Z,100761.41
2023-03-28T07:43:56.364Z,100740.06
2023-03-28T07:46:25.948Z,100735.31
2023-03-28T07:48:55.741Z,100749.31
2023-03-28T07:51:23.838Z,100741.06
2023-03-28T07:53:51.976Z,100740.44
2023-03-28T07:56:20.184Z,100738.28
2023-03-28T07:58:48.525Z,100731.25
2023-03-28T08:01:18.821Z,100733.88
2023-03-28T08:03:48.463Z,100742.44
2023-03-28T08:06:30.988Z,100731.72
2023-03-28T08:09:00.638Z,100708.53
2023-03-28T08:11:29.248Z,100692.44
2023-03-28T08:13:57.373Z,100694.25
2023-03-28T08:16:25.666Z,100680.25
2023-03-28T08:19:09.415Z,100684.19
2023-03-28T08:21:38.792Z,100685.53
2023-03-28T08:24:08.098Z,100683.88
2023-03-28T08:26:36.833Z,100680.25
2023-03-28T08:29:06.333Z,100675.97
2023-03-28T08:31:34.627Z,100674.66
2023-03-28T08:34:04.261Z,100674.81
2023-03-28T08:36:32.498Z,100676.47
2023-03-28T08:39:01.557Z,100671.22
2023-03-28T08:41:42.942Z,100679.44
2023-03-28T08:44:23.698Z,100675.00
2023-03-28T08:46:56.682Z,100680.25
2023-03-28T08:49:26.706Z,100672.50
2023-03-28T08:52:00.393Z,100672.84
2023-03-28T08:54:32.234Z,100660.31
2023-03-28T08:57:03.963Z,100661.47
2023-03-28T08:59:43.443Z,100657.50
2023-03-28T09:02:19.243Z,100648.91
2023-03-28T09:04:50.049Z,100650.22
2023-03-28T09:07:27.248Z,100645.75
2023-03-28T09:10:07.932Z,100644.56
2023-03-28T09:12:49.042Z,100650.28
2023-03-28T09:15:29.004Z,100650.28
2023-03-28T09:18:22.766Z,100653.22
2023-03-28T09:20:55.212Z,100646.31
2023-03-28T09:23:50.996Z,100649.75
2023-03-28T09:26:24.712Z,100651.59
2023-03-28T09:29:01.237Z,100658.00
2023-03-28T09:31:34.246Z,100655.38
2023-03-28T09:34:03.961Z,100649.94
2023-03-28T09:36:47.758Z,100654.38
2023-03-28T09:39:25.066Z,100660.66
2023-03-28T09:41:58.517Z,100653.56
2023-03-28T09:44:36.293Z,100665.59
2023-03-28T09:47:13.531Z,100664.06
2023-03-28T09:49:41.785Z,100664.56
2023-03-28T09:52:19.006Z,100657.13
2023-03-28T09:54:48.327Z,100653.97
2023-03-28T09:57:16.525Z,100650.34
2023-03-28T09:59:44.693Z,100651.50
2023-03-28T10:02:28.093Z,100648.34
2023-03-28T10:04:56.433Z,100641.00
2023-03-28T10:07:35.514Z,100637.00
2023-03-28T10:10:17.689Z,100627.41
2023-03-28T10:12:49.066Z,100622.84
2023-03-28T10:15:41.809Z,100615.41
2023-03-28T10:18:17.904Z,100605.91
2023-03-28T10:20:46.811Z,100593.00
2023-03-28T10:23:16.539Z,100586.72
2023-03-28T10:25:50.918Z,100573.44
2023-03-28T10:28:25.624Z,100559.09
2023-03-28T10:30:57.636Z,100551.16
2023-03-28T10:33:29.813Z,100534.59
2023-03-28T10:36:00.630Z,100525.38
2023-03-28T10:38:36.213Z,100520.00
2023-03-28T10:41:08.265Z,100514.72
2023-03-28T10:43:39.571Z,100499.34
2023-03-28T10:46:17.514Z,100499.75
2023-03-28T10:48:50.222Z,100504.00
2023-03-28T10:51:22.285Z,100508.16
2023-03-28T10:54:06.042Z,100516.69
2023-03-28T10:56:41.473Z,100528.31
2023-03-28T10:59:37.528Z,100528.81
2023-03-28T11:02:34.989Z,100537.31
2023-03-28T11:05:13.061Z,100540.72
2023-03-28T11:07:48.142Z,100528.88
2023-03-28T11:10:24.259Z,100526.84
2023-03-28T11:13:04.953Z,100517.66
2023-03-28T11:15:41.088Z,100515.41
2023-03-28T11:18:26.986Z,100499.84
2023-03-28T11:21:09.083Z,100495.91
2023-03-28T11:23:46.161Z,100492.31
2023-03-28T11:26:18.466Z,100497.53
2023-03-28T11:28:59.975Z,100497.13
2023-03-28T11:31:33.355Z,100496.72
2023-03-28T11:34:07.744Z,100494.53
2023-03-28T11:36:43.657Z,100484.44
2023-03-28T11:39:20.660Z,100487.97
2023-03-28T11:41:51.843Z,100497.38
2023-03-28T11:44:25.608Z,100496.94
2023-03-28T11:47:00.649Z,100504.03
2023-03-28T11:49:35.050Z,100512.56
2023-03-28T11:52:11.442Z,100512.47
2023-03-28T11:54:44.240Z,100515.50
2023-03-28T11:57:19.361Z,100511.00
2023-03-28T11:59:53.012Z,100513.81
2023-03-28T12:02:37.080Z,100520.50
2023-03-28T12:05:11.296Z,100515.78
2023-03-28T12:07:44.679Z,100499.66
2023-03-28T12:10:22.167Z,100497.53
2023-03-28T12:13:03.171Z,100502.03
2023-03-28T12:15:38.966Z,100492.81
2023-03-28T12:18:14.353Z,100500.16
2023-03-28T12:20:49.653Z,100496.88
2023-03-28T12:23:25.817Z,100495.69
2023-03-28T12:26:04.095Z,100489.16
2023-03-28T12:28:41.670Z,100495.47
2023-03-28T12:31:18.214Z,100502.00
2023-03-28T12:33:57.528Z,100496.47
2023-03-28T12:36:34.229Z,100506.63
2023-03-28T12:39:12.658Z,100512.69
2023-03-28T12:41:41.687Z,100520.13
2023-03-28T12:44:15.656Z,100517.44
2023-03-28T12:46:47.222Z,100520.66
2023-03-28T12:49:19.703Z,100518.59
2023-03-28T12:51:51.199Z,100515.75
2023-03-28T12:54:24.558Z,100522.06
2023-03-28T12:57:03.169Z,100525.59
2023-03-28T12:59:54.223Z,100526.63
2023-03-28T13:02:32.725Z,100528.50
2023-03-28T13:05:12.425Z,100527.69
2023-03-28T13:07:56.763Z,100539.16
2023-03-28T13:10:34.407Z,100529.44
2023-03-28T13:13:14.580Z,100525.38
2023-03-28T13:16:05.233Z,100519.72
2023-03-28T13:18:34.571Z,100520.13
2023-03-28T13:21:07.380Z,100522.19
2023-03-28T13:23:46.313Z,100516.31
2023-03-28T13:26:15.088Z,100506.16
2023-03-28T13:28:46.209Z,100490.13
2023-03-28T13:31:25.830Z,100485.69
2023-03-28T13:33:58.729Z,100484.13
2023-03-28T13:36:30.010Z,100482.16
2023-03-28T13:39:23.612Z,100465.28
2023-03-28T13:41:57.673Z,100469.56
2023-03-28T13:44:51.532Z,100465.53
2023-03-28T13:47:28.822Z,100467.97
2023-03-28T13:50:04.513Z,100477.16
2023-03-28T13:52:33.592Z,100471.44
2023-03-28T13:55:03.220Z,100470.81
2023-03-28T13:57:31.704Z,100460.63
2023-03-28T14:00:01.532Z,100472.47
2023-03-28T14:02:38.191Z,100468.34
2023-03-28T14:05:15.532Z,100472.88
2023-03-28T14:07:43.682Z,100479.78
2023-03-28T14:10:40.598Z,100479.63
2023-03-28T14:13:13.402Z,100483.28
2023-03-28T14:15:43.299Z,100481.25
2023-03-28T14:18:17.768Z,100484.72
2023-03-28T14:20:47.978Z,100473.28
2023-03-28T14:23:30.670Z,100476.16
2023-03-28T14:25:59.676Z,100482.69
2023-03-28T14:28:30.292Z,100477.38
2023-03-28T14:30:59.848Z,100470.03
2023-03-28T14:33:37.399Z,100478.56
2023-03-28T14:36:07.085Z,100480.63
2023-03-28T14:38:38.401Z,100488.72
2023-03-28T14:41:10.367Z,100479.72
2023-03-28T14:43:38.475Z,100482.59
2023-03-28T14:46:09.344Z,100482.22
2023-03-28T14:48:40.414Z,100488.38
2023-03-28T14:51:12.970Z,100486.78
2023-03-28T14:53:49.701Z,100482.66
2023-03-28T14:56:24.990Z,100470.00
2023-03-28T14:58:57.910Z,100486.53
2023-03-28T15:01:27.803Z,100476.50
2023-03-28T15:04:02.469Z,100471.63
2023-03-28T15:06:31.495Z,100473.69
2023-03-28T15:09:04.420Z,100475.94
2023-03-28T15:11:37.294Z,100468.78
2023-03-28T15:14:08.431Z,100473.91
2023-03-28T15:16:39.554Z,100466.34
2023-03-28T15:19:16.253Z,100465.31
2023-03-28T15:21:49.959Z,100472.47
2023-03-28T15:24:20.162Z,100473.25
2023-03-28T15:26:51.283Z,100470.44
2023-03-28T15:29:22.837Z,100476.16
2023-03-28T15:31:51.094Z,100479.00
2023-03-28T15:34:26.901Z,100480.03
2023-03-28T15:37:00.879Z,100480.63
2023-03-28T15:39:32.116Z,100482.69
2023-03-28T15:42:02.072Z,100478.38
2023-03-28T15:44:33.121Z,100474.09
2023-03-28T15:47:04.526Z,100463.91
2023-03-28T15:49:38.272Z,100458.59
2023-03-28T15:52:09.457Z,100451.63
2023-03-28T15:54:43.429Z,100445.09
2023-03-28T15:57:14.627Z,100443.06
2023-03-28T15:59:51.325Z,100437.34
2023-03-28T16:02:32.959Z,100440.19
2023-03-28T16:05:03.434Z,100439.78
2023-03-28T16:07:36.345Z,100428.75
2023-03-28T16:10:06.131Z,100440.38
2023-03-28T16:12:34.370Z,100432.00
2023-03-28T16:15:03.793Z,100424.69
2023-03-28T16:17:32.945Z,100440.16
2023-03-28T16:20:03.995Z,100428.94
2023-03-28T16:22:32.098Z,100423.44
2023-03-28T16:25:00.228Z,100421.41
2023-03-28T16:27:28.298Z,100417.53
2023-03-28T16:29:56.885Z,100421.00
2023-03-28T16:32:25.211Z,100419.97
2023-03-28T16:34:53.686Z,100423.84
2023-03-28T16:37:23.239Z,100429.13
2023-03-28T16:39:51.628Z,100431.41
2023-03-28T16:42:20.847Z,100428.13
2023-03-28T16:44:49.042Z,100433.41
2023-03-28T16:47:17.282Z,100438.94
2023-03-28T16:49:45.448Z,100448.72
2023-03-28T16:52:13.626Z,100442.16
2023-03-28T16:54:44.297Z,100441.13
2023-03-28T16:57:12.403Z,100440.94
2023-03-28T16:59:40.679Z,100447.09
2023-03-28T17:02:09.191Z,100453.81
2023-03-28T17:04:37.544Z,100457.91
2023-03-28T17:07:06.200Z,100449.75
2023-03-28T17:09:34.748Z,100462.41
2023-03-28T17:12:04.333Z,100466.03
2023-03-28T17:14:32.407Z,100459.31
2023-03-28T17:17:00.834Z,100466.47
2023-03-28T17:19:29.099Z,100469.13
2023-03-28T17:21:57.273Z,100469.13
2023-03-28T17:24:25.566Z,100466.66
2023-03-28T17:26:53.819Z,100474.59
2023-03-28T17:29:23.873Z,100471.94
2023-03-28T17:31:52.812Z,100479.66
2023-03-28T17:34:21.069Z,100479.03
2023-03-28T17:36:51.122Z,100483.31
2023-03-28T17:39:19.296Z,100489.81
2023-03-28T17:41:47.441Z,100497.16
2023-03-28T17:44:15.712Z,100502.25
2023-03-28T17:46:46.922Z,100507.72
2023-03-28T17:49:16.952Z,100510.56
2023-03-28T17:51:46.309Z,100507.69
2023-03-28T17:54:14.755Z,100511.38
2023-03-28T17:56:43.367Z,100507.47
2023-03-28T17:59:11.820Z,100513.34
2023-03-28T18:01:39.984Z,100508.66
2023-03-28T18:04:09.586Z,100524.91
2023-03-28T18:06:38.119Z,100525.50
2023-03-28T18:09:06.402Z,100532.19
2023-03-28T18:11:35.709Z,100531.97
2023-03-28T18:14:03.934Z,100530.53
2023-03-28T18:16:32.191Z,100525.00
2023-03-28T18:19:00.382Z,100525.38
2023-03-28T18:21:30.188Z,100519.03
2023-03-28T18:23:58.375Z,100528.56
2023-03-28T18:26:28.870Z,100527.69
2023-03-28T18:28:57.059Z,100529.31
2023-03-28T18:31:28.213Z,100533.44
2023-03-28T18:33:57.575Z,100541.53
2023-03-28T18:36:26.287Z,100527.31
2023-03-28T18:38:56.629Z,100527.31
2023-03-28T18:41:25.071Z,100529.91
2023-03-28T18:43:53.219Z,100531.94
2023-03-28T18:46:21.616Z,100527.66
2023-03-28T18:48:49.827Z,100528.84
2023-03-28T18:51:18.474Z,100523.91
2023-03-28T18:53:46.607Z,100523.69
2023-03-28T18:56:17.007Z,100513.50
2023-03-28T18:58:46.601Z,100515.69
2023-03-28T19:01:15.723Z,100507.16
2023-03-28T19:03:45.030Z,100519.28
2023-03-28T19:06:15.202Z,100516.03
2023-03-28T19:08:44.798Z,100521.66
2023-03-28T19:11:16.795Z,100519.41
2023-03-28T19:13:45.108Z,100527.09
2023-03-28T19:16:15.240Z,100532.56
2023-03-28T19:18:44.950Z,100539.69
2023-03-28T19:21:13.523Z,100536.41
2023-03-28T19:23:42.008Z,100541.06
2023-03-28T19:26:12.749Z,100536.59
2023-03-28T19:28:42.549Z,100539.63
2023-03-28T19:31:12.804Z,100550.22
2023-03-28T19:33:41.911Z,100545.09
2023-03-28T19:36:11.508Z,100538.34
2023-03-28T19:38:40.482Z,100539.53
2023-03-28T19:41:15.732Z,100540.56
2023-03-28T19:43:45.994Z,100527.34
2023-03-28T19:46:18.831Z,100521.03
2023-03-28T19:48:47.107Z,100515.75
2023-03-28T19:51:15.627Z,100526.31
2023-03-28T19:53:44.208Z,100525.69
2023-03-28T19:56:12.429Z,100532.44
2023-03-28T19:58:40.910Z,100542.03
2023-03-28T20:01:10.653Z,100543.66
2023-03-28T20:03:39.060Z,100536.53
2023-03-28T20:06:09.200Z,100542.63
2023-03-28T20:08:37.348Z,100541.63
2023-03-28T20:11:09.577Z,100544.91
2023-03-28T20:13:37.854Z,100550.00
2023-03-28T20:16:08.054Z,100559.31
2023-03-28T20:18:37.868Z,100556.47
2023-03-28T20:21:08.475Z,100563.59
2023-03-28T20:23:37.156Z,100557.50
2023-03-28T20:26:15.849Z,100563.44
2023-03-28T20:28:46.890Z,100565.44
2023-03-28T20:31:15.882Z,100569.09
2023-03-28T20:33:46.257Z,100589.22
2023-03-28T20:36:14.697Z,100587.97
2023-03-28T20:38:42.776Z,100576.56
2023-03-28T20:41:12.387Z,100582.50
2023-03-28T20:43:47.295Z,100584.13
2023-03-28T20:46:19.719Z,100589.78
2023-03-28T20:48:53.399Z,100589.16
2023-03-28T20:51:22.598Z,100583.22
2023-03-28T20:53:53.582Z,100574.47
2023-03-28T20:56:22.712Z,100574.47
2023-03-28T20:58:53.340Z,100571.47
2023-03-28T21:01:25.546Z,100572.66
2023-03-28T21:03:58.835Z,100577.31
2023-03-28T21:06:29.691Z,100580.97
2023-03-28T21:09:00.614Z,100582.00
2023-03-28T21:11:30.681Z,100577.69
2023-03-28T21:14:00.195Z,100574.22
2023-03-28T21:16:30.102Z,100573.41
2023-03-28T21:19:01.300Z,100573.78
2023-03-28T21:21:33.333Z,100564.22
2023-03-28T21:24:02.307Z,100562.78
2023-03-28T21:26:31.481Z,100558.31
2023-03-28T21:28:59.997Z,100553.19
2023-03-28T21:31:29.964Z,100548.09
2023-03-28T21:34:01.065Z,100549.09
2023-03-28T21:36:29.717Z,100540.72
2023-03-28T21:38:58.280Z,100543.56
2023-03-28T21:41:27.550Z,100539.09
2023-03-28T21:43:56.084Z,100542.91
2023-03-28T21:46:24.466Z,100540.91
2023-03-28T21:48:52.608Z,100541.91
2023-03-28T21:51:22.096Z,100537.81
2023-03-28T21:53:50.902Z,100540.66
2023-03-28T21:56:18.990Z,100543.19
2023-03-28T21:58:47.298Z,100539.75
2023-03-28T22:01:17.824Z,100535.66
2023-03-28T22:03:46.831Z,100540.50
2023-03-28T22:06:15.629Z,100540.03
2023-03-28T22:08:51.944Z,100541.66
2023-03-28T22:11:28.259Z,100535.97
2023-03-28T22:14:01.529Z,100529.00
2023-03-28T22:16:37.080Z,100530.03
2023-03-28T22:19:06.008Z,100530.41
2023-03-28T22:21:34.611Z,100527.94
2023-03-28T22:24:06.761Z,100528.94
2023-03-28T22:26:36.033Z,100530.75
2023-03-28T22:29:05.151Z,100540.69
2023-03-28T22:31:33.360Z,100543.31
2023-03-28T22:34:01.681Z,100541.06
2023-03-28T22:36:29.855Z,100540.59
2023-03-28T22:38:58.158Z,100534.69
2023-03-28T22:41:32.088Z,100527.94
2023-03-28T22:44:00.427Z,100521.03
2023-03-28T22:46:28.629Z,100513.31
2023-03-28T22:48:58.629Z,100511.63
2023-03-28T22:51:28.181Z,100506.09
2023-03-28T22:54:00.504Z,100514.00
2023-03-28T22:56:30.813Z,100515.84
2023-03-28T22:59:01.535Z,100516.84
2023-03-28T23:01:30.280Z,100516.50
2023-03-28T23:03:58.690Z,100511.22
2023-03-28T23:06:27.220Z,100501.47
2023-03-28T23:08:55.456Z,100515.84
2023-03-28T23:11:23.599Z,100512.19
2023-03-28T23:13:53.268Z,100507.09
2023-03-28T23:16:21.460Z,100517.84
2023-03-28T23:18:50.225Z,100522.94
2023-03-28T23:21:18.817Z,100534.34
2023-03-28T23:23:47.570Z,100526.59
2023-03-28T23:26:15.905Z,100522.13
2023-03-28T23:28:44.129Z,100523.41
2023-03-28T23:31:14.652Z,100516.09
2023-03-28T23:33:44.716Z,100510.47
2023-03-28T23:36:14.194Z,100512.09
2023-03-28T23:38:42.996Z,100502.81
2023-03-28T23:41:11.389Z,100506.88
2023-03-28T23:43:39.618Z,100499.63
2023-03-28T23:46:09.147Z,100499.63
2023-03-28T23:48:38.938Z,100494.78
2023-03-28T23:51:07.881Z,100499.25
2023-03-28T23:53:36.339Z,100491.13
2023-03-28T23:56:04.957Z,100500.06
2023-03-28T23:58:33.126Z,100491.13
